Time;durP1;ratioP1;P1;durP2;ratioP2;P2;SDS_P1;SDS_P2;PMS_P1;PMS_P2;Temp;Humidity;BMP_temperature;BMP_pressure;BME280_temperature;BME280_humidity;BME280_pressure;Samples;Min_cycle;Max_cycle;Signal;HPM_P1;HPM_P2
2023/11/21 06:01:53;;;;;;;1.90;0.52;;;9.30;82.10;;;;;;4214053;23;20057;-76
2023/11/21 06:03:55;;;;;;;1.63;0.77;;;9.30;82.00;;;;;;4102785;29;20058;-79
2023/11/21 06:05:57;;;;;;;1.80;0.57;;;9.30;82.00;;;;;;4102132;29;20485;-78
2023/11/21 06:08:00;;;;;;;2.25;0.50;;;9.30;82.80;;;;;;4102364;29;20098;-77
2023/11/21 06:10:02;;;;;;;1.75;0.57;;;9.20;82.10;;;;;;4102508;29;20047;-77
2023/11/21 06:12:05;;;;;;;1.02;0.45;;;9.30;82.40;;;;;;4102419;29;20083;-77
2023/11/21 06:14:09;;;;;;;1.65;0.52;;;9.30;82.50;;;;;;4102451;29;20412;-78
2023/11/21 06:16:13;;;;;;;2.53;0.70;;;9.30;82.50;;;;;;4102115;29;20055;-79
2023/11/21 06:18:19;;;;;;;2.30;0.50;;;9.30;82.70;;;;;;4102320;29;20082;-78
2023/11/21 06:20:22;;;;;;;2.67;0.52;;;9.30;82.90;;;;;;4102535;29;20051;-76
2023/11/21 06:22:24;;;;;;;4.10;0.60;;;9.30;82.90;;;;;;4102087;29;20063;-79
2023/11/21 06:24:26;;;;;;;1.77;0.68;;;9.30;83.00;;;;;;4102250;29;20055;-78
2023/11/21 06:26:28;;;;;;;1.75;0.70;;;9.30;83.10;;;;;;4102278;29;20125;-76
2023/11/21 06:28:30;;;;;;;2.28;0.77;;;9.30;83.00;;;;;;4102266;29;20548;-78
2023/11/21 06:30:32;;;;;;;2.28;0.88;;;9.30;83.00;;;;;;4101957;29;20079;-78
2023/11/21 06:32:35;;;;;;;2.25;0.70;;;9.30;83.10;;;;;;4101812;29;20051;-79
2023/11/21 06:34:38;;;;;;;1.95;0.60;;;9.40;83.20;;;;;;4102180;29;20043;-77
2023/11/21 06:36:41;;;;;;;1.92;0.70;;;9.40;83.20;;;;;;4101889;29;20055;-77
2023/11/21 06:38:42;;;;;;;1.35;0.60;;;9.40;83.20;;;;;;4102084;29;20094;-76
2023/11/21 06:40:45;;;;;;;2.05;0.80;;;9.40;83.10;;;;;;4101953;29;20055;-77
2023/11/21 06:42:47;;;;;;;2.88;0.75;;;9.40;83.10;;;;;;4101807;29;20476;-76
2023/11/21 06:44:51;;;;;;;1.67;0.60;;;9.40;83.10;;;;;;4101846;29;20061;-78
2023/11/21 06:46:53;;;;;;;2.97;0.70;;;9.40;83.10;;;;;;4101993;29;20121;-76
2023/11/21 06:48:55;;;;;;;2.10;0.60;;;9.40;82.70;;;;;;4101760;29;20050;-79
2023/11/21 06:50:57;;;;;;;2.05;0.68;;;9.40;82.70;;;;;;4101875;29;20047;-75
2023/11/21 06:52:59;;;;;;;4.15;0.70;;;9.40;82.50;;;;;;4101785;29;20053;-78
2023/11/21 06:55:02;;;;;;;1.58;0.60;;;9.40;82.30;;;;;;4101768;29;20043;-76
2023/11/21 06:57:04;;;;;;;2.95;0.50;;;9.40;82.20;;;;;;4101313;28;20051;-76
2023/11/21 06:59:06;;;;;;;1.83;0.50;;;9.40;82.00;;;;;;4101998;29;20086;-78
2023/11/21 07:01:08;;;;;;;3.08;0.70;;;9.40;81.90;;;;;;4097466;29;20083;-78
2023/11/21 07:03:10;;;;;;;1.52;0.60;;;9.40;81.90;;;;;;4086347;29;20055;-78
2023/11/21 07:05:11;;;;;;;2.88;0.68;;;9.50;82.00;;;;;;4086178;29;20056;-80
2023/11/21 07:07:14;;;;;;;2.53;0.75;;;9.40;81.80;;;;;;4085537;29;20099;-79
2023/11/21 07:09:16;;;;;;;2.08;0.70;;;9.50;81.80;;;;;;4086133;29;20052;-77
2023/11/21 07:11:17;;;;;;;1.48;0.52;;;9.50;82.40;;;;;;4085971;29;20052;-80
2023/11/21 07:13:19;;;;;;;2.33;0.60;;;9.50;81.70;;;;;;4085931;29;20462;-79
2023/11/21 07:15:22;;;;;;;1.35;0.50;;;9.50;81.40;;;;;;4085764;29;20127;-78
2023/11/21 07:17:24;;;;;;;3.65;0.45;;;9.60;81.40;;;;;;4085956;29;20055;-78
2023/11/21 07:19:26;;;;;;;2.88;0.77;;;9.60;81.10;;;;;;4085528;29;20107;-77
2023/11/21 07:21:27;;;;;;;2.10;0.60;;;9.60;81.30;;;;;;4086531;29;20047;-78
2023/11/21 07:23:31;;;;;;;3.03;0.70;;;9.60;81.40;;;;;;4085831;29;20043;-78
2023/11/21 07:25:33;;;;;;;1.75;0.70;;;9.60;81.50;;;;;;4085662;29;20048;-80
2023/11/21 07:27:35;;;;;;;2.53;0.60;;;9.60;81.30;;;;;;4086371;29;20044;-78
2023/11/21 07:29:37;;;;;;;2.85;0.82;;;9.60;81.30;;;;;;4087051;29;20133;-77
2023/11/21 07:31:41;;;;;;;2.53;0.90;;;9.60;81.30;;;;;;4087843;29;20449;-78
2023/11/21 07:33:42;;;;;;;4.20;0.68;;;9.60;81.40;;;;;;4087917;29;20051;-79
2023/11/21 07:35:44;;;;;;;3.15;0.80;;;9.70;81.30;;;;;;4087335;29;20054;-78
2023/11/21 07:37:47;;;;;;;2.65;0.68;;;9.70;81.10;;;;;;4085612;29;20461;-78
2023/11/21 07:39:55;;;;;;;2.28;0.70;;;9.70;81.20;;;;;;4085562;29;20391;-78
2023/11/21 07:41:57;;;;;;;2.13;0.63;;;9.80;81.20;;;;;;4085499;29;20052;-77
2023/11/21 07:43:58;;;;;;;4.15;0.80;;;9.80;81.00;;;;;;4086071;29;20197;-79
2023/11/21 07:46:00;;;;;;;2.35;0.70;;;9.80;80.90;;;;;;4083487;29;20083;-77
2023/11/21 07:48:03;;;;;;;2.17;0.90;;;9.80;81.70;;;;;;4083880;29;20094;-77
2023/11/21 07:50:07;;;;;;;3.00;0.70;;;9.90;81.00;;;;;;4083825;29;20461;-77
2023/11/21 07:52:08;;;;;;;2.97;0.88;;;9.90;81.10;;;;;;4083202;29;20126;-76
2023/11/21 07:54:10;;;;;;;3.85;1.00;;;9.90;81.40;;;;;;4083939;29;20052;-76
2023/11/21 07:56:13;;;;;;;3.15;0.90;;;9.90;81.40;;;;;;4083616;29;20087;-77
2023/11/21 07:58:15;;;;;;;2.80;0.85;;;9.90;81.20;;;;;;4082825;29;20497;-77
2023/11/21 08:00:18;;;;;;;2.45;0.77;;;9.90;81.30;;;;;;4083525;29;20052;-77
2023/11/21 08:02:20;;;;;;;2.60;1.00;;;9.90;81.20;;;;;;4081292;29;20127;-79
2023/11/21 08:04:22;;;;;;;3.05;1.02;;;9.90;80.70;;;;;;4083117;29;20051;-77
2023/11/21 08:06:25;;;;;;;3.85;1.23;;;9.80;80.10;;;;;;4083619;29;20103;-76
2023/11/21 08:08:27;;;;;;;3.33;1.00;;;9.80;80.70;;;;;;4082963;29;20206;-77
2023/11/21 08:10:30;;;;;;;4.03;1.10;;;9.80;80.80;;;;;;4082944;29;20106;-77
2023/11/21 08:12:33;;;;;;;5.85;2.80;;;9.80;80.70;;;;;;4083538;29;20057;-78
2023/11/21 08:14:38;;;;;;;3.95;1.02;;;9.80;81.10;;;;;;4083094;29;20146;-78
2023/11/21 08:16:40;;;;;;;3.42;1.20;;;9.90;81.10;;;;;;4083192;29;20118;-80
2023/11/21 08:18:42;;;;;;;4.43;1.30;;;9.90;81.10;;;;;;4083999;29;20047;-77
2023/11/21 08:20:47;;;;;;;3.53;1.27;;;9.90;81.10;;;;;;4084239;29;20055;-78
2023/11/21 08:22:49;;;;;;;3.67;1.10;;;10.00;81.00;;;;;;4084760;29;20394;-78
2023/11/21 08:24:51;;;;;;;3.80;1.27;;;9.90;81.00;;;;;;4084208;29;20047;-78
2023/11/21 08:26:54;;;;;;;3.63;1.20;;;9.90;81.20;;;;;;4083786;29;20055;-76
2023/11/21 08:28:57;;;;;;;3.75;1.30;;;10.00;81.60;;;;;;4083681;29;20058;-77
2023/11/21 08:30:59;;;;;;;2.78;0.95;;;9.90;81.60;;;;;;4083762;29;20087;-77
2023/11/21 08:33:01;;;;;;;4.18;1.10;;;9.90;81.30;;;;;;4083614;29;20461;-75
2023/11/21 08:35:02;;;;;;;3.83;1.38;;;9.90;81.50;;;;;;4084152;29;20063;-76
2023/11/21 08:37:03;;;;;;;3.80;1.25;;;9.90;81.90;;;;;;4084350;29;20056;-77
2023/11/21 08:39:05;;;;;;;3.05;1.27;;;10.00;82.40;;;;;;4084122;29;20054;-79
2023/11/21 08:41:08;;;;;;;3.03;1.33;;;10.00;82.40;;;;;;4084219;29;20070;-77
2023/11/21 08:43:11;;;;;;;4.30;1.10;;;9.90;82.00;;;;;;4083027;29;20060;-78
2023/11/21 08:45:17;;;;;;;2.53;1.00;;;9.90;81.70;;;;;;4083749;29;20047;-79
2023/11/21 08:47:19;;;;;;;5.90;1.35;;;9.90;81.80;;;;;;4084497;29;20543;-78
2023/11/21 08:49:21;;;;;;;4.95;1.25;;;10.00;81.50;;;;;;4083831;29;20512;-78
2023/11/21 08:51:22;;;;;;;3.15;1.33;;;10.00;81.50;;;;;;4083482;29;20106;-78
2023/11/21 08:53:26;;;;;;;4.88;1.23;;;10.10;81.10;;;;;;4082601;29;20063;-78
2023/11/21 08:55:28;;;;;;;3.90;1.27;;;10.10;80.20;;;;;;4082771;29;20059;-77
2023/11/21 08:57:29;;;;;;;6.20;1.30;;;10.10;80.60;;;;;;4082047;29;20128;-77
2023/11/21 08:59:31;;;;;;;4.60;1.42;;;10.10;80.80;;;;;;4082347;29;20091;-76
2023/11/21 09:01:34;;;;;;;2.45;1.10;;;10.10;81.10;;;;;;4089747;29;20063;-77
2023/11/21 09:03:36;;;;;;;2.80;1.10;;;10.20;80.60;;;;;;4096315;29;20464;-77
2023/11/21 09:05:39;;;;;;;3.45;1.20;;;10.20;80.40;;;;;;4099003;29;20083;-77
2023/11/21 09:07:43;;;;;;;2.75;1.15;;;10.20;80.30;;;;;;4098517;29;20047;-80
2023/11/21 09:09:44;;;;;;;4.00;1.10;;;10.20;80.60;;;;;;4097737;29;20059;-78
2023/11/21 09:11:49;;;;;;;3.67;1.10;;;10.20;80.70;;;;;;4098446;29;20051;-79
2023/11/21 09:13:51;;;;;;;2.75;1.17;;;10.20;80.90;;;;;;4098317;29;20087;-77
2023/11/21 09:15:53;;;;;;;4.88;1.40;;;10.20;81.40;;;;;;4098118;29;20229;-78
2023/11/21 09:17:56;;;;;;;4.43;1.13;;;10.20;81.70;;;;;;4097733;29;20063;-78
2023/11/21 09:19:57;;;;;;;3.03;1.30;;;10.10;81.40;;;;;;4097868;28;20048;-78
2023/11/21 09:21:59;;;;;;;3.25;1.20;;;10.20;81.50;;;;;;4101229;29;20051;-78
2023/11/21 09:23:59;;;;;;;3.97;1.10;;;10.10;80.60;;;;;;4101183;29;20051;-80
2023/11/21 09:26:01;;;;;;;5.22;1.48;;;10.10;80.50;;;;;;4100960;29;20047;-79
2023/11/21 09:28:05;;;;;;;4.47;1.10;;;10.10;81.00;;;;;;4101159;29;20055;-79
2023/11/21 09:30:10;;;;;;;4.03;1.60;;;10.10;81.20;;;;;;4100917;29;20082;-78
2023/11/21 09:32:14;;;;;;;7.00;1.67;;;10.10;81.80;;;;;;4101376;29;20083;-78
2023/11/21 09:34:17;;;;;;;3.88;1.02;;;10.10;81.40;;;;;;4101115;29;20110;-79
2023/11/21 09:36:21;;;;;;;3.08;1.10;;;10.10;81.10;;;;;;4101027;29;20067;-78
2023/11/21 09:38:23;;;;;;;3.25;1.02;;;10.20;81.30;;;;;;4101520;29;20389;-76
2023/11/21 09:40:26;;;;;;;3.75;1.20;;;10.20;81.30;;;;;;4100875;29;20051;-80
2023/11/21 09:42:41;;;;;;;2.65;0.90;;;10.20;81.00;;;;;;4101069;29;20055;-78
2023/11/21 09:44:50;;;;;;;3.30;1.20;;;10.10;80.80;;;;;;4101045;29;20074;-76
2023/11/21 09:46:54;;;;;;;3.95;1.23;;;10.20;80.90;;;;;;4101276;29;20087;-79
2023/11/21 09:49:01;;;;;;;3.10;1.00;;;10.10;80.40;;;;;;4100784;29;20090;-79
2023/11/21 09:51:05;;;;;;;3.40;1.20;;;10.10;80.30;;;;;;4101150;29;20044;-76
2023/11/21 09:53:14;;;;;;;4.95;1.27;;;10.20;80.30;;;;;;4100811;29;20055;-77
2023/11/21 09:55:18;;;;;;;3.22;1.15;;;10.30;80.20;;;;;;4100708;29;20047;-78
2023/11/21 09:57:22;;;;;;;3.78;1.30;;;10.30;80.50;;;;;;4100732;29;20110;-77
2023/11/21 09:59:24;;;;;;;2.30;1.00;;;10.40;80.00;;;;;;4100677;29;20055;-77
2023/11/21 10:01:28;;;;;;;3.13;1.25;;;10.40;79.80;;;;;;4085474;29;20052;-77
2023/11/21 10:03:30;;;;;;;2.95;1.00;;;10.40;79.50;;;;;;4082551;29;20095;-79
2023/11/21 10:05:34;;;;;;;2.95;1.08;;;10.50;79.50;;;;;;4085215;29;20504;-77
2023/11/21 10:07:38;;;;;;;2.50;1.10;;;10.50;78.80;;;;;;4084768;29;20118;-77
2023/11/21 10:09:40;;;;;;;3.88;1.13;;;10.40;79.10;;;;;;4084286;29;20321;-78
2023/11/21 10:11:43;;;;;;;3.75;1.70;;;10.40;79.80;;;;;;4084820;29;20056;-78
2023/11/21 10:13:47;;;;;;;4.53;1.05;;;10.40;79.60;;;;;;4084677;29;20401;-78
2023/11/21 10:15:52;;;;;;;4.25;1.20;;;10.50;79.40;;;;;;4084245;29;20055;-78
2023/11/21 10:17:56;;;;;;;3.85;1.00;;;10.40;79.60;;;;;;4084605;29;20070;-78
2023/11/21 10:19:57;;;;;;;3.22;1.20;;;10.50;79.20;;;;;;4084534;29;20103;-80
2023/11/21 10:22:03;;;;;;;2.85;1.00;;;10.50;79.00;;;;;;4084467;29;20469;-80
2023/11/21 10:24:07;;;;;;;;;;;10.50;80.00;;;;;;4085269;29;20055;-77
2023/11/21 10:26:16;;;;;;;2.47;1.00;;;10.50;79.70;;;;;;4084735;29;20340;-78
2023/11/21 10:28:17;;;;;;;2.72;0.80;;;10.50;79.00;;;;;;4084707;29;20450;-73
2023/11/21 10:30:19;;;;;;;4.35;0.93;;;10.50;77.90;;;;;;4084251;29;20084;-78
2023/11/21 10:32:21;;;;;;;2.70;0.98;;;10.60;78.20;;;;;;4083688;29;20102;-76
2023/11/21 10:34:22;;;;;;;2.53;1.10;;;10.60;78.50;;;;;;4084366;29;20058;-79
2023/11/21 10:36:28;;;;;;;2.38;1.10;;;10.50;78.60;;;;;;4084226;29;20493;-78
2023/11/21 10:38:44;;;;;;;2.92;1.00;;;10.50;79.30;;;;;;4084239;29;20102;-78
2023/11/21 10:40:47;;;;;;;;;;;10.50;80.10;;;;;;4085080;29;20078;-78
2023/11/21 10:42:48;;;;;;;3.15;0.90;;;10.50;80.50;;;;;;4084545;29;20372;-77
2023/11/21 10:44:50;;;;;;;2.90;0.98;;;10.50;80.60;;;;;;4084393;29;20056;-79
2023/11/21 10:46:56;;;;;;;2.92;1.00;;;10.40;80.60;;;;;;4084633;29;20055;-78
2023/11/21 10:48:58;;;;;;;2.67;0.93;;;10.30;80.90;;;;;;4084152;29;20578;-75
2023/11/21 10:51:00;;;;;;;2.92;1.17;;;10.40;81.30;;;;;;4084565;29;20056;-80
2023/11/21 10:53:03;;;;;;;3.13;1.30;;;10.50;81.20;;;;;;4084424;29;20048;-79
2023/11/21 10:55:19;;;;;;;2.28;0.90;;;10.50;81.00;;;;;;4084127;29;20052;-79
2023/11/21 10:57:24;;;;;;;2.55;0.90;;;10.50;80.60;;;;;;4083638;29;20517;-77
2023/11/21 10:59:29;;;;;;;2.63;0.85;;;10.50;81.00;;;;;;4084330;29;20090;-78
2023/11/21 11:01:32;;;;;;;2.03;0.80;;;10.50;81.10;;;;;;4075636;29;20056;-79
2023/11/21 11:03:37;;;;;;;2.55;0.90;;;10.40;81.70;;;;;;4082314;29;20438;-77
2023/11/21 11:05:39;;;;;;;1.93;0.67;;;10.30;81.90;;;;;;4085677;29;20482;-79
2023/11/21 11:07:44;;;;;;;2.17;0.85;;;10.30;81.70;;;;;;4084943;29;20126;-77
2023/11/21 11:09:47;;;;;;;2.28;0.90;;;10.30;82.10;;;;;;4084704;29;20556;-77
2023/11/21 11:11:49;;;;;;;2.20;0.90;;;10.30;82.50;;;;;;4084659;29;20076;-77
2023/11/21 11:13:54;;;;;;;2.60;0.93;;;10.30;82.30;;;;;;4085410;29;20051;-76
2023/11/21 11:16:01;;;;;;;1.80;0.60;;;10.30;82.10;;;;;;4084192;29;20102;-80
2023/11/21 11:18:04;;;;;;;2.17;0.73;;;10.40;81.10;;;;;;4084096;29;20142;-80
2023/11/21 11:20:10;;;;;;;2.42;0.60;;;10.50;81.10;;;;;;4083928;29;20549;-77
2023/11/21 11:22:26;;;;;;;3.05;0.70;;;10.50;80.30;;;;;;4085334;29;20055;-77
2023/11/21 11:24:58;;;;;;;2.17;0.50;;;10.40;80.10;;;;;;4085393;29;20055;-78
2023/11/21 11:27:11;;;;;;;1.45;0.60;;;10.50;79.70;;;;;;4098470;29;20051;-79
2023/11/21 11:29:26;;;;;;;1.50;0.60;;;10.50;79.80;;;;;;4100908;29;20047;-78
2023/11/21 11:31:44;;;;;;;1.75;0.68;;;10.60;80.50;;;;;;4100510;29;20441;-78
2023/11/21 11:33:54;;;;;;;3.83;0.90;;;10.60;80.10;;;;;;4099948;29;20063;-77
2023/11/21 11:36:02;;;;;;;2.47;0.65;;;10.70;79.10;;;;;;4099137;29;20059;-78
2023/11/21 11:38:04;;;;;;;2.00;0.70;;;10.70;79.20;;;;;;4100027;29;20051;-78
2023/11/21 11:40:08;;;;;;;2.17;0.57;;;10.80;79.40;;;;;;4106717;29;20054;-78
2023/11/21 11:42:15;;;;;;;1.75;0.70;;;10.80;79.20;;;;;;4109290;29;20047;-78
2023/11/21 11:44:52;;;;;;;3.20;0.70;;;10.90;79.60;;;;;;4109346;28;20055;-77
2023/11/21 11:46:54;;;;;;;3.55;1.00;;;10.90;79.10;;;;;;4112009;29;20052;-79
2023/11/21 11:49:04;;;;;;;2.05;0.88;;;10.80;79.20;;;;;;4108754;29;20504;-79
2023/11/21 11:51:09;;;;;;;2.80;0.90;;;10.80;79.80;;;;;;4105298;29;20134;-78
2023/11/21 11:53:15;;;;;;;2.72;0.70;;;10.80;80.20;;;;;;4100110;29;20467;-78
2023/11/21 11:55:19;;;;;;;5.50;1.02;;;10.80;79.60;;;;;;4101835;29;20057;-78
2023/11/21 11:57:23;;;;;;;2.88;0.90;;;10.80;79.50;;;;;;4099515;29;20528;-77
2023/11/21 11:59:26;;;;;;;2.88;1.10;;;10.80;80.20;;;;;;4099205;29;20102;-77
2023/11/21 12:01:31;;;;;;;3.28;1.00;;;10.90;80.00;;;;;;4098362;29;20062;-78
2023/11/21 12:03:33;;;;;;;4.20;0.85;;;10.90;79.70;;;;;;4097102;29;20058;-76
2023/11/21 12:05:38;;;;;;;2.50;0.80;;;10.90;79.70;;;;;;4100061;29;20058;-77
2023/11/21 12:07:46;;;;;;;3.33;1.15;;;11.00;79.50;;;;;;4100886;29;20234;-77
2023/11/21 12:09:48;;;;;;;2.28;1.00;;;10.90;79.30;;;;;;4101175;29;20071;-78
2023/11/21 12:11:50;;;;;;;2.60;0.98;;;11.00;79.80;;;;;;4102591;29;20122;-78
2023/11/21 12:13:53;;;;;;;2.13;0.90;;;11.00;82.00;;;;;;4100606;29;20515;-77
2023/11/21 12:15:55;;;;;;;3.22;0.98;;;10.90;81.70;;;;;;4102892;29;20074;-77
2023/11/21 12:17:59;;;;;;;1.98;0.90;;;10.90;81.50;;;;;;4099954;29;20469;-76
2023/11/21 12:20:03;;;;;;;3.45;1.02;;;10.90;82.00;;;;;;4097722;29;20054;-80
2023/11/21 12:22:06;;;;;;;2.72;0.85;;;10.80;83.00;;;;;;4098868;29;20067;-78
2023/11/21 12:24:08;;;;;;;2.65;1.20;;;10.80;82.70;;;;;;4098833;29;20047;-79
2023/11/21 12:26:10;;;;;;;4.38;1.00;;;10.70;83.30;;;;;;4099024;29;20086;-78
2023/11/21 12:28:13;;;;;;;2.88;1.00;;;10.80;84.00;;;;;;4099202;29;20087;-78
2023/11/21 12:30:15;;;;;;;2.45;1.10;;;10.80;84.10;;;;;;4098872;29;20055;-78
2023/11/21 12:32:18;;;;;;;2.65;1.10;;;10.70;84.00;;;;;;4098764;29;20134;-78
2023/11/21 12:34:21;;;;;;;2.70;0.90;;;10.60;84.70;;;;;;4099460;29;20071;-77
2023/11/21 12:36:22;;;;;;;3.47;1.25;;;10.70;84.90;;;;;;4098824;29;20065;-77
2023/11/21 12:38:24;;;;;;;2.83;1.00;;;10.60;85.50;;;;;;4098985;29;20110;-77
2023/11/21 12:40:27;;;;;;;2.63;1.00;;;10.60;85.40;;;;;;4099229;29;20104;-78
2023/11/21 12:42:30;;;;;;;3.60;1.20;;;10.60;85.50;;;;;;4099008;29;20174;-77
2023/11/21 12:44:32;;;;;;;3.38;1.17;;;10.60;85.70;;;;;;4098837;29;20110;-79
2023/11/21 12:46:35;;;;;;;2.30;1.10;;;10.60;85.70;;;;;;4098900;29;20623;-76
2023/11/21 12:48:39;;;;;;;2.40;0.95;;;10.60;86.30;;;;;;4098380;29;20057;-78
2023/11/21 12:50:42;;;;;;;3.67;1.10;;;10.60;85.80;;;;;;4098732;29;20241;-78
2023/11/21 12:52:47;;;;;;;2.65;0.95;;;10.60;85.20;;;;;;4098660;29;20055;-80
2023/11/21 12:54:49;;;;;;;1.83;0.90;;;10.70;85.20;;;;;;4098749;28;20044;-76
2023/11/21 12:56:51;;;;;;;2.88;1.05;;;10.80;84.80;;;;;;4101637;29;20468;-80
2023/11/21 12:58:57;;;;;;;3.20;1.15;;;10.80;85.10;;;;;;4101426;29;20102;-78
2023/11/21 13:01:00;;;;;;;;;;;10.90;85.40;;;;;;4090337;29;20051;-79
2023/11/21 13:03:07;;;;;;;2.78;1.00;;;10.80;84.60;;;;;;4084003;29;20020;-77
2023/11/21 13:05:18;;;;;;;2.42;1.10;;;10.90;84.60;;;;;;4086102;29;20111;-77
2023/11/21 13:07:22;;;;;;;2.88;1.17;;;11.00;84.40;;;;;;4087468;29;20051;-76
2023/11/21 13:09:24;;;;;;;2.90;1.05;;;11.30;83.90;;;;;;4086100;29;20059;-77
2023/11/21 13:11:27;;;;;;;2.63;1.10;;;11.60;82.70;;;;;;4085326;29;20056;-78
2023/11/21 13:13:31;;;;;;;2.47;1.08;;;11.60;82.00;;;;;;4085691;29;20402;-79
2023/11/21 13:15:32;;;;;;;1.92;0.93;;;11.40;81.30;;;;;;4085878;29;20051;-79
2023/11/21 13:17:34;;;;;;;2.28;1.00;;;11.30;82.00;;;;;;4085761;29;20091;-78
2023/11/21 13:19:36;;;;;;;2.13;1.00;;;11.30;81.80;;;;;;4085811;29;20489;-77
2023/11/21 13:21:39;;;;;;;3.20;1.00;;;11.20;81.30;;;;;;4085260;29;20047;-77
2023/11/21 13:23:45;;;;;;;2.60;1.00;;;11.20;81.80;;;;;;4085633;29;20055;-78
2023/11/21 13:25:48;;;;;;;3.38;1.13;;;11.20;81.80;;;;;;4085467;29;20094;-77
2023/11/21 13:27:51;;;;;;;2.42;0.95;;;11.20;82.00;;;;;;4085776;29;20054;-77
2023/11/21 13:29:54;;;;;;;2.20;0.80;;;11.10;83.30;;;;;;4085454;29;20110;-78
2023/11/21 13:31:56;;;;;;;13.32;8.35;;;11.10;83.80;;;;;;4084830;29;20055;-77
2023/11/21 13:34:04;;;;;;;12.13;6.40;;;11.20;84.00;;;;;;4085180;29;20063;-79
2023/11/21 13:36:09;;;;;;;6.68;3.55;;;11.40;83.30;;;;;;4085778;29;20055;-78
2023/11/21 13:38:12;;;;;;;5.93;3.30;;;11.50;83.10;;;;;;4085343;29;20055;-76
2023/11/21 13:40:19;;;;;;;3.63;1.25;;;11.50;83.30;;;;;;4085321;29;20051;-78
2023/11/21 13:42:25;;;;;;;1.77;0.90;;;11.70;83.00;;;;;;4085341;29;20079;-77
2023/11/21 13:44:34;;;;;;;3.00;0.80;;;11.70;82.50;;;;;;4084831;29;20059;-80
2023/11/21 13:46:37;;;;;;;2.45;0.90;;;11.60;81.20;;;;;;4085248;29;20059;-77
2023/11/21 13:48:42;;;;;;;2.40;0.85;;;11.60;80.90;;;;;;4085588;29;20059;-79
2023/11/21 13:50:48;;;;;;;2.75;0.90;;;11.50;80.30;;;;;;4085234;29;20048;-78
2023/11/21 13:52:51;;;;;;;1.77;0.80;;;11.50;80.20;;;;;;4085577;29;20130;-79
2023/11/21 13:54:53;;;;;;;2.08;0.80;;;11.50;80.00;;;;;;4084925;29;20052;-78
2023/11/21 13:56:56;;;;;;;3.25;1.00;;;11.40;79.70;;;;;;4084824;29;20059;-79
2023/11/21 13:59:03;;;;;;;2.10;0.77;;;11.40;79.10;;;;;;4085214;29;20497;-78
2023/11/21 14:01:13;;;;;;;2.13;1.02;;;11.50;80.40;;;;;;4088481;29;20070;-80
2023/11/21 14:03:20;;;;;;;2.42;0.90;;;11.40;81.00;;;;;;4098990;29;20146;-78
2023/11/21 14:05:29;;;;;;;2.83;0.85;;;11.30;82.20;;;;;;4100883;29;20067;-76
2023/11/21 14:07:35;;;;;;;2.45;1.00;;;11.20;81.50;;;;;;4099691;28;20047;-77
2023/11/21 14:09:43;;;;;;;1.80;0.90;;;11.20;81.60;;;;;;4100462;29;20462;-77
2023/11/21 14:11:45;;;;;;;2.83;0.80;;;11.20;81.80;;;;;;4100858;29;20564;-78
2023/11/21 14:13:49;;;;;;;2.90;1.00;;;11.10;82.90;;;;;;4100337;29;20054;-76
2023/11/21 14:15:54;;;;;;;3.42;1.10;;;11.10;81.80;;;;;;4100357;29;20098;-78
2023/11/21 14:17:56;;;;;;;2.22;0.98;;;11.00;83.80;;;;;;4100694;29;20320;-77
2023/11/21 14:19:58;;;;;;;2.33;1.10;;;11.00;83.50;;;;;;4100044;29;20109;-78
2023/11/21 14:22:00;;;;;;;2.50;1.00;;;11.00;84.30;;;;;;4099897;29;20054;-78
2023/11/21 14:24:02;;;;;;;3.50;1.20;;;10.90;83.90;;;;;;4100265;29;20175;-79
2023/11/21 14:26:06;;;;;;;2.47;1.00;;;10.90;83.80;;;;;;4100500;29;20126;-78
2023/11/21 14:28:08;;;;;;;2.20;1.08;;;10.90;84.00;;;;;;4100489;29;20127;-79
2023/11/21 14:30:13;;;;;;;2.50;1.20;;;10.90;84.20;;;;;;4100373;29;20078;-79
2023/11/21 14:32:15;;;;;;;4.13;1.17;;;10.90;84.40;;;;;;4100159;29;20051;-78
2023/11/21 14:34:17;;;;;;;3.85;1.58;;;10.90;85.30;;;;;;4100755;29;20106;-79
2023/11/21 14:36:19;;;;;;;3.83;1.15;;;10.90;85.20;;;;;;4100624;29;20055;-79
2023/11/21 14:38:21;;;;;;;3.53;1.38;;;10.90;84.80;;;;;;4100139;29;20051;-78
2023/11/21 14:40:24;;;;;;;2.70;1.20;;;10.90;84.70;;;;;;4100262;29;20394;-80
2023/11/21 14:42:29;;;;;;;2.90;1.27;;;10.90;84.80;;;;;;4100226;29;20047;-80
2023/11/21 14:44:35;;;;;;;2.90;1.30;;;10.90;85.80;;;;;;4100142;29;20062;-77
2023/11/21 14:46:39;;;;;;;;;;;10.90;86.10;;;;;;4101912;29;20476;-79
2023/11/21 14:48:42;;;;;;;3.28;1.48;;;10.90;85.90;;;;;;4102007;29;19972;-78
2023/11/21 14:50:55;;;;;;;2.70;1.38;;;10.90;85.40;;;;;;4102060;29;20110;-78
2023/11/21 14:52:59;;;;;;;3.40;1.58;;;10.90;85.30;;;;;;4100429;29;20465;-78
2023/11/21 14:57:18;;;;;;;5.20;2.22;;;10.80;84.90;;;;;;4099132;29;20048;-81
2023/11/21 14:59:19;;;;;;;4.97;2.40;;;10.80;85.00;;;;;;4099807;29;20059;-79
2023/11/21 15:01:33;;;;;;;4.72;1.95;;;10.80;85.60;;;;;;4084911;29;20063;-78
2023/11/21 15:05:55;;;;;;;4.65;2.20;;;10.80;85.90;;;;;;4083922;29;20157;-78
2023/11/21 15:08:08;;;;;;;3.60;2.10;;;10.80;85.80;;;;;;4083573;29;20044;-78
2023/11/21 15:10:14;;;;;;;4.13;2.28;;;10.70;85.90;;;;;;4082228;29;20143;-77
2023/11/21 15:12:15;;;;;;;5.28;2.15;;;10.70;86.30;;;;;;4083879;29;20127;-77
2023/11/21 15:14:23;;;;;;;3.92;2.50;;;10.70;86.10;;;;;;4099269;29;20090;-76
2023/11/21 15:16:26;;;;;;;3.83;2.50;;;10.70;86.20;;;;;;4099123;29;20113;-80
2023/11/21 15:18:29;;;;;;;4.00;2.28;;;10.70;86.30;;;;;;4098944;28;20093;-76
2023/11/21 15:20:31;;;;;;;4.13;2.40;;;10.70;86.40;;;;;;4095932;29;20082;-77
2023/11/21 15:22:33;;;;;;;4.57;2.00;;;10.60;86.30;;;;;;4083358;29;20071;-78
2023/11/21 15:24:36;;;;;;;4.03;2.00;;;10.70;86.60;;;;;;4083300;29;20048;-78
2023/11/21 15:26:39;;;;;;;4.38;2.20;;;10.70;86.70;;;;;;4082350;29;20058;-77
2023/11/21 15:28:40;;;;;;;4.18;2.17;;;10.70;86.50;;;;;;4083597;29;20405;-77
2023/11/21 15:30:43;;;;;;;3.28;2.08;;;10.60;86.80;;;;;;4073008;29;20071;-78
2023/11/21 15:32:45;;;;;;;4.38;2.28;;;10.70;86.60;;;;;;4082624;29;20462;-77
2023/11/21 15:34:47;;;;;;;4.38;2.63;;;10.60;86.90;;;;;;4082820;29;20058;-78
2023/11/21 15:36:52;;;;;;;5.70;3.20;;;10.50;88.00;;;;;;4097433;29;20386;-78
2023/11/21 15:38:55;;;;;;;17.13;9.85;;;10.60;87.30;;;;;;4099202;29;20122;-78
2023/11/21 15:40:58;;;;;;;17.83;10.68;;;10.50;87.70;;;;;;4099293;29;20047;-80
2023/11/21 15:43:02;;;;;;;6.97;3.80;;;10.50;88.30;;;;;;4099187;29;20109;-79
2023/11/21 15:45:07;;;;;;;6.53;3.53;;;10.50;87.70;;;;;;4095785;29;20130;-79
2023/11/21 15:47:09;;;;;;;6.72;3.05;;;10.50;87.30;;;;;;4082975;29;20083;-76
2023/11/21 15:49:13;;;;;;;6.05;3.15;;;10.50;87.20;;;;;;4083223;29;20138;-79
2023/11/21 15:51:15;;;;;;;6.63;3.55;;;10.50;87.10;;;;;;4083165;29;20106;-79
2023/11/21 15:53:18;;;;;;;22.73;9.95;;;10.60;87.10;;;;;;4083233;29;20477;-78
2023/11/21 15:55:20;;;;;;;8.07;3.90;;;10.60;86.80;;;;;;4082904;29;20107;-78
2023/11/21 15:57:22;;;;;;;5.50;2.58;;;10.50;86.70;;;;;;4081977;29;20791;-77
2023/11/21 15:59:29;;;;;;;4.30;2.13;;;10.50;86.50;;;;;;4083218;29;20063;-76
2023/11/21 16:01:31;;;;;;;5.57;2.33;;;10.50;86.40;;;;;;4089473;29;20155;-78
2023/11/21 16:03:33;;;;;;;4.45;2.20;;;10.40;86.30;;;;;;4096160;29;20048;-79
2023/11/21 16:05:35;;;;;;;4.03;2.45;;;10.50;86.40;;;;;;4098884;29;20071;-80
2023/11/21 16:07:38;;;;;;;4.32;2.33;;;10.40;86.20;;;;;;4098809;29;20059;-79
2023/11/21 16:09:42;;;;;;;5.78;2.40;;;10.40;86.30;;;;;;4098510;29;20382;-79
2023/11/21 16:11:44;;;;;;;3.67;2.30;;;10.40;86.40;;;;;;4098136;29;20089;-79
2023/11/21 16:13:46;;;;;;;4.93;2.70;;;10.40;86.70;;;;;;4098760;29;20055;-77
2023/11/21 16:15:49;;;;;;;4.70;2.60;;;10.40;86.60;;;;;;4098472;29;20073;-76
2023/11/21 16:17:51;;;;;;;4.80;2.70;;;10.40;86.80;;;;;;4098561;29;20142;-80
2023/11/21 16:19:55;;;;;;;4.55;2.65;;;10.40;86.80;;;;;;4098595;29;20081;-78
2023/11/21 16:21:57;;;;;;;28.33;15.95;;;10.40;86.70;;;;;;4097689;29;20055;-77
2023/11/21 16:23:59;;;;;;;6.25;3.20;;;10.40;87.00;;;;;;4098463;29;20048;-77
2023/11/21 16:26:04;;;;;;;6.30;3.60;;;10.40;86.90;;;;;;4097876;29;20477;-80
2023/11/21 16:28:06;;;;;;;14.53;8.57;;;10.30;87.50;;;;;;4098472;29;20051;-79
2023/11/21 16:30:09;;;;;;;9.77;5.30;;;10.20;88.20;;;;;;4097623;28;20389;-78
2023/11/21 16:32:11;;;;;;;8.73;4.80;;;10.30;88.20;;;;;;4098397;29;20200;-78
2023/11/21 16:34:15;;;;;;;10.13;6.13;;;10.20;88.20;;;;;;4097551;29;20239;-74
2023/11/21 16:36:18;;;;;;;13.48;7.45;;;10.30;88.20;;;;;;4098414;29;20055;-76
2023/11/21 16:38:19;;;;;;;8.18;4.68;;;10.30;88.00;;;;;;4098876;29;20051;-77
2023/11/21 16:40:21;;;;;;;13.00;8.02;;;10.40;87.90;;;;;;4098321;29;20066;-78
2023/11/21 16:42:25;;;;;;;17.50;8.93;;;10.40;87.90;;;;;;4098198;29;20051;-77
2023/11/21 16:44:26;;;;;;;7.50;4.22;;;10.40;87.90;;;;;;4097846;29;20486;-79
2023/11/21 16:46:28;;;;;;;10.70;7.05;;;10.30;88.20;;;;;;4082693;29;20135;-78
2023/11/21 16:48:29;;;;;;;7.15;4.30;;;10.20;88.40;;;;;;4097242;29;20051;-79
2023/11/21 16:50:31;;;;;;;21.27;11.65;;;10.30;88.70;;;;;;4098108;29;20090;-78
2023/11/21 16:52:33;;;;;;;14.30;8.07;;;10.30;88.40;;;;;;4097888;29;20047;-77